createdAt,value
2022-08-20T00:02:07.173Z,63.27
2022-08-20T00:04:46.557Z,63.32
2022-08-20T00:07:31.529Z,62.82
2022-08-20T00:10:09.201Z,62.63
2022-08-20T00:12:48.604Z,62.56
2022-08-20T00:15:31.332Z,62.39
2022-08-20T00:18:06.914Z,62.33
2022-08-20T00:20:51.679Z,62.27
2022-08-20T00:23:31.580Z,62.06
2022-08-20T00:26:11.070Z,61.77
2022-08-20T00:28:55.572Z,62.08
2022-08-20T00:31:36.480Z,62.00
2022-08-20T00:34:19.396Z,62.00
2022-08-20T00:36:54.816Z,62.27
2022-08-20T00:39:39.760Z,62.06
2022-08-20T00:42:18.206Z,62.07
2022-08-20T00:44:58.136Z,61.80
2022-08-20T00:47:36.577Z,61.50
2022-08-20T00:50:32.495Z,61.30
2022-08-20T00:53:10.941Z,61.63
2022-08-20T00:55:49.811Z,61.75
2022-08-20T00:58:25.557Z,61.96
2022-08-20T01:01:04.060Z,61.97
2022-08-20T01:03:44.639Z,61.97
2022-08-20T01:06:19.403Z,62.14
2022-08-20T01:08:56.231Z,62.01
2022-08-20T01:11:38.762Z,62.11
2022-08-20T01:14:39.328Z,62.46
2022-08-20T01:17:21.118Z,63.49
2022-08-20T01:20:11.840Z,63.21
2022-08-20T01:23:29.574Z,63.40
2022-08-20T01:26:17.439Z,64.11
2022-08-20T01:29:03.915Z,64.15
2022-08-20T01:31:42.846Z,63.99
2022-08-20T01:34:22.637Z,64.29
2022-08-20T01:37:01.212Z,63.72
2022-08-20T01:39:41.093Z,63.41
2022-08-20T01:42:21.735Z,63.53
2022-08-20T01:45:00.537Z,63.83
2022-08-20T01:47:42.013Z,64.28
2022-08-20T01:50:30.203Z,64.09
2022-08-20T01:53:21.470Z,63.65
2022-08-20T01:56:03.287Z,63.80
2022-08-20T01:58:44.893Z,63.78
2022-08-20T02:01:45.874Z,64.68
2022-08-20T02:04:24.384Z,64.52
2022-08-20T02:07:04.094Z,65.58
2022-08-20T02:09:43.856Z,66.08
2022-08-20T02:12:25.930Z,65.84
2022-08-20T02:15:04.156Z,65.19
2022-08-20T02:17:45.329Z,65.71
2022-08-20T02:20:28.543Z,65.73
2022-08-20T02:23:09.308Z,64.86
2022-08-20T02:25:50.021Z,65.77
2022-08-20T02:28:29.828Z,65.89
2022-08-20T02:31:11.434Z,65.48
2022-08-20T02:34:21.689Z,66.01
2022-08-20T02:36:51.965Z,66.04
2022-08-20T02:39:32.934Z,66.01
2022-08-20T02:42:13.453Z,66.25
2022-08-20T02:45:00.384Z,66.37
2022-08-20T02:47:35.037Z,66.88
2022-08-20T02:50:16.717Z,66.97
2022-08-20T02:52:54.333Z,66.96
2022-08-20T02:55:34.076Z,66.93
2022-08-20T02:58:12.070Z,66.74
2022-08-20T03:00:53.630Z,66.24
2022-08-20T03:03:30.269Z,66.56
2022-08-20T03:06:07.011Z,66.52
2022-08-20T03:08:42.934Z,66.45
2022-08-20T03:11:23.663Z,66.22
2022-08-20T03:14:03.204Z,67.20
2022-08-20T03:16:44.040Z,67.86
2022-08-20T03:19:20.917Z,67.84
2022-08-20T03:22:02.882Z,68.25
2022-08-20T03:24:44.195Z,68.35
2022-08-20T03:27:32.650Z,68.08
2022-08-20T03:30:19.741Z,68.05
2022-08-20T03:33:03.772Z,67.96
2022-08-20T03:35:43.235Z,68.45
2022-08-20T03:38:33.048Z,68.29
2022-08-20T03:41:09.757Z,68.47
2022-08-20T03:43:51.614Z,68.58
2022-08-20T03:46:30.214Z,68.89
2022-08-20T03:49:05.919Z,69.33
2022-08-20T03:51:56.275Z,69.37
2022-08-20T03:54:37.698Z,68.90
2022-08-20T03:57:18.139Z,69.07
2022-08-20T03:59:58.641Z,69.27
2022-08-20T04:02:35.956Z,69.57
2022-08-20T04:05:15.423Z,69.33
2022-08-20T04:07:51.101Z,69.13
2022-08-20T04:10:29.101Z,69.19
2022-08-20T04:13:04.402Z,69.15
2022-08-20T04:15:45.280Z,68.78
2022-08-20T04:18:26.012Z,69.11
2022-08-20T04:21:06.279Z,69.34
2022-08-20T04:23:42.897Z,68.57
2022-08-20T04:26:20.191Z,68.43
2022-08-20T04:28:58.880Z,68.70
2022-08-20T04:31:37.691Z,69.51
2022-08-20T04:34:16.564Z,69.81
2022-08-20T04:36:59.037Z,69.43
2022-08-20T04:39:33.987Z,68.96
2022-08-20T04:42:14.399Z,68.39
2022-08-20T04:44:52.028Z,68.16
2022-08-20T04:47:34.493Z,67.92
2022-08-20T04:50:13.469Z,67.27
2022-08-20T04:52:53.087Z,66.86
2022-08-20T04:55:32.802Z,66.02
2022-08-20T04:58:11.574Z,65.27
2022-08-20T05:01:01.081Z,64.10
2022-08-20T05:03:37.821Z,63.35
2022-08-20T05:06:19.679Z,63.16
2022-08-20T05:08:56.368Z,62.49
2022-08-20T05:11:36.746Z,62.13
2022-08-20T05:14:14.364Z,61.66
2022-08-20T05:16:55.006Z,60.85
2022-08-20T05:19:38.371Z,60.91
2022-08-20T05:22:16.253Z,60.24
2022-08-20T05:25:02.115Z,59.73
2022-08-20T05:27:38.734Z,59.24
2022-08-20T05:30:18.178Z,58.53
2022-08-20T05:32:55.681Z,57.75
2022-08-20T05:35:35.197Z,57.72
2022-08-20T05:38:13.792Z,57.30
2022-08-20T05:40:52.684Z,57.18
2022-08-20T05:43:29.983Z,56.62
2022-08-20T05:46:08.828Z,56.33
2022-08-20T05:48:47.140Z,55.08
2022-08-20T05:51:24.889Z,54.43
2022-08-20T05:54:01.502Z,54.47
2022-08-20T05:56:38.786Z,53.36
2022-08-20T05:59:21.062Z,53.13
2022-08-20T06:02:25.695Z,52.32
2022-08-20T06:05:01.609Z,52.00
2022-08-20T06:07:45.269Z,51.95
2022-08-20T06:10:21.854Z,51.50
2022-08-20T06:13:07.345Z,50.85
2022-08-20T06:15:48.671Z,49.86
2022-08-20T06:18:28.851Z,49.54
2022-08-20T06:21:05.972Z,49.26
2022-08-20T06:23:56.598Z,48.48
2022-08-20T06:26:36.627Z,48.03
2022-08-20T06:29:14.515Z,46.79
2022-08-20T06:31:50.721Z,46.71
2022-08-20T06:34:31.198Z,46.84
2022-08-20T06:37:30.966Z,46.08
2022-08-20T06:40:20.781Z,45.06
2022-08-20T06:42:58.655Z,44.69
2022-08-20T06:45:38.208Z,43.85
2022-08-20T06:48:17.565Z,43.57
2022-08-20T06:50:57.184Z,43.01
2022-08-20T06:53:33.505Z,42.75
2022-08-20T06:56:12.830Z,41.89
2022-08-20T06:58:48.437Z,40.81
2022-08-20T07:01:27.353Z,40.83
2022-08-20T07:04:01.888Z,40.28
2022-08-20T07:06:39.536Z,39.99
2022-08-20T07:09:15.845Z,39.47
2022-08-20T07:11:55.262Z,38.00
2022-08-20T07:14:34.657Z,38.04
2022-08-20T07:17:16.134Z,37.99
2022-08-20T07:19:53.686Z,36.97
2022-08-20T07:22:37.044Z,36.45
2022-08-20T07:25:17.219Z,36.86
2022-08-20T07:27:55.582Z,35.43
2022-08-20T07:30:56.778Z,34.86
2022-08-20T07:33:39.219Z,35.26
2022-08-20T07:36:17.837Z,34.79
2022-08-20T07:38:56.916Z,35.28
2022-08-20T07:41:34.486Z,35.24
2022-08-20T07:44:15.913Z,34.20
2022-08-20T07:46:55.272Z,34.31
2022-08-20T07:49:34.793Z,33.44
2022-08-20T07:52:13.829Z,34.07
2022-08-20T07:54:54.513Z,32.00
2022-08-20T07:57:31.796Z,32.66
2022-08-20T08:00:11.978Z,31.89
2022-08-20T08:02:50.347Z,31.54
2022-08-20T08:05:34.836Z,31.34
2022-08-20T08:08:16.085Z,31.36
2022-08-20T08:10:54.573Z,31.53
2022-08-20T08:13:38.658Z,31.68
2022-08-20T08:16:17.023Z,30.74
2022-08-20T08:18:59.359Z,30.00
2022-08-20T08:21:37.800Z,29.99
2022-08-20T08:24:20.269Z,29.07
2022-08-20T08:26:59.393Z,29.02
2022-08-20T08:29:37.811Z,30.26
2022-08-20T08:32:16.154Z,30.13
2022-08-20T08:34:50.489Z,28.73
2022-08-20T08:37:30.890Z,27.93
2022-08-20T08:40:11.164Z,28.68
2022-08-20T08:42:55.013Z,30.18
2022-08-20T08:45:49.881Z,29.45
2022-08-20T08:48:37.225Z,29.22
2022-08-20T08:51:19.485Z,28.91
2022-08-20T08:54:06.625Z,28.17
2022-08-20T08:56:49.737Z,27.45
2022-08-20T08:59:52.092Z,27.54
2022-08-20T09:02:38.099Z,25.55
2022-08-20T09:05:20.261Z,26.88
2022-08-20T09:07:58.672Z,27.19
2022-08-20T09:10:35.934Z,27.47
2022-08-20T09:13:15.525Z,27.34
2022-08-20T09:15:56.708Z,26.45
2022-08-20T09:18:33.954Z,24.98
2022-08-20T09:21:13.548Z,25.50
2022-08-20T09:23:51.611Z,26.29
2022-08-20T09:26:38.934Z,26.48
2022-08-20T09:29:19.358Z,25.88
2022-08-20T09:32:11.926Z,26.65
2022-08-20T09:35:00.277Z,26.00
2022-08-20T09:37:38.575Z,25.73
2022-08-20T09:40:21.114Z,25.43
2022-08-20T09:43:06.585Z,25.14
2022-08-20T09:45:46.463Z,24.18
2022-08-20T09:48:32.093Z,24.79
2022-08-20T09:51:13.181Z,24.97
2022-08-20T09:53:52.610Z,24.53
2022-08-20T09:56:29.143Z,24.78
2022-08-20T09:59:09.310Z,24.15
2022-08-20T10:01:45.555Z,24.60
2022-08-20T10:04:26.153Z,24.28
2022-08-20T10:07:05.499Z,23.97
2022-08-20T10:09:46.039Z,24.00
2022-08-20T10:12:25.916Z,23.62
2022-08-20T10:15:07.381Z,23.42
2022-08-20T10:17:46.091Z,24.41
2022-08-20T10:20:29.081Z,23.66
2022-08-20T10:23:06.333Z,23.06
2022-08-20T10:25:44.606Z,22.39
2022-08-20T10:28:21.021Z,22.09
2022-08-20T10:31:02.535Z,20.90
2022-08-20T10:33:40.670Z,22.16
2022-08-20T10:36:21.092Z,22.03
2022-08-20T10:39:00.414Z,21.97
2022-08-20T10:41:41.879Z,22.99
2022-08-20T10:44:20.989Z,21.67
2022-08-20T10:47:00.400Z,22.97
2022-08-20T10:49:40.640Z,23.36
2022-08-20T10:52:18.918Z,22.96
2022-08-20T10:54:58.247Z,23.94
2022-08-20T10:57:37.677Z,23.96
2022-08-20T11:00:15.903Z,23.22
2022-08-20T11:02:56.499Z,23.99
2022-08-20T11:05:32.482Z,23.39
2022-08-20T11:08:15.903Z,23.37
2022-08-20T11:11:11.358Z,23.11
2022-08-20T11:13:49.596Z,22.49
2022-08-20T11:16:27.932Z,23.87
2022-08-20T11:19:07.724Z,23.58
2022-08-20T11:21:45.599Z,23.52
2022-08-20T11:24:22.980Z,23.44
2022-08-20T11:27:00.398Z,22.64
2022-08-20T11:29:41.137Z,21.72
2022-08-20T11:32:18.943Z,22.69
2022-08-20T11:34:58.731Z,22.30
2022-08-20T11:37:37.601Z,22.52
2022-08-20T11:40:19.952Z,23.77
2022-08-20T11:43:17.578Z,22.09
2022-08-20T11:45:56.575Z,22.66
2022-08-20T11:48:35.010Z,23.90
2022-08-20T11:51:13.423Z,23.49
2022-08-20T11:53:52.669Z,22.53
2022-08-20T11:56:31.028Z,21.72
2022-08-20T11:59:08.354Z,21.81
2022-08-20T12:02:02.303Z,22.87
2022-08-20T12:04:40.317Z,22.28
2022-08-20T12:07:21.676Z,22.15
2022-08-20T12:09:57.758Z,23.18
2022-08-20T12:12:37.206Z,22.81
2022-08-20T12:15:17.918Z,22.76
2022-08-20T12:18:01.281Z,22.72
2022-08-20T12:20:37.160Z,23.07
2022-08-20T12:23:14.762Z,22.73
2022-08-20T12:25:52.096Z,22.95
2022-08-20T12:28:29.181Z,21.87
2022-08-20T12:31:05.539Z,21.63
2022-08-20T12:33:47.953Z,21.73
2022-08-20T12:36:27.447Z,21.85
2022-08-20T12:39:07.554Z,20.82
2022-08-20T12:41:49.096Z,20.32
2022-08-20T12:44:33.368Z,20.34
2022-08-20T12:47:34.526Z,21.78
2022-08-20T12:50:23.326Z,21.73
2022-08-20T12:53:02.433Z,22.17
2022-08-20T12:55:45.602Z,21.67
2022-08-20T12:58:23.805Z,21.67
2022-08-20T13:01:04.447Z,20.53
2022-08-20T13:03:43.153Z,19.89
2022-08-20T13:06:24.859Z,20.73
2022-08-20T13:09:07.040Z,19.86
2022-08-20T13:11:50.824Z,19.99
2022-08-20T13:14:28.671Z,19.17
2022-08-20T13:17:09.041Z,18.94
2022-08-20T13:19:50.237Z,18.19
2022-08-20T13:22:33.619Z,17.68
2022-08-20T13:25:15.811Z,17.59
2022-08-20T13:27:58.143Z,18.39
2022-08-20T13:30:35.330Z,21.35
2022-08-20T13:33:16.831Z,20.92
2022-08-20T13:35:53.176Z,20.11
2022-08-20T13:38:33.312Z,20.66
2022-08-20T13:41:08.764Z,19.80
2022-08-20T13:43:52.928Z,19.71
2022-08-20T13:46:33.149Z,20.16
2022-08-20T13:49:13.572Z,20.24
2022-08-20T13:51:52.206Z,20.22
2022-08-20T13:54:33.124Z,19.74
2022-08-20T13:57:19.453Z,19.22
2022-08-20T14:00:00.010Z,19.54
2022-08-20T14:02:38.047Z,19.77
2022-08-20T14:05:18.632Z,20.08
2022-08-20T14:07:55.552Z,18.51
2022-08-20T14:10:37.059Z,18.38
2022-08-20T14:13:15.603Z,18.71
2022-08-20T14:15:53.685Z,19.28
2022-08-20T14:18:30.065Z,19.03
2022-08-20T14:21:08.193Z,18.68
2022-08-20T14:23:44.793Z,18.34
2022-08-20T14:26:27.900Z,18.42
2022-08-20T14:29:06.012Z,17.98
2022-08-20T14:31:43.830Z,17.92
2022-08-20T14:34:23.927Z,18.65
2022-08-20T14:37:03.124Z,19.04
2022-08-20T14:39:41.394Z,19.16
2022-08-20T14:42:24.884Z,19.91
2022-08-20T14:45:02.014Z,20.04
2022-08-20T14:47:53.748Z,19.92
2022-08-20T14:50:35.739Z,19.53
2022-08-20T14:53:21.287Z,19.04
2022-08-20T14:55:56.675Z,18.69
2022-08-20T14:58:39.858Z,18.24
2022-08-20T15:01:17.386Z,17.42
2022-08-20T15:03:57.541Z,17.69
2022-08-20T15:06:35.715Z,17.67
2022-08-20T15:09:18.590Z,17.61
2022-08-20T15:11:57.469Z,17.69
2022-08-20T15:14:33.791Z,17.46
2022-08-20T15:17:14.145Z,17.28
2022-08-20T15:19:49.501Z,17.15
2022-08-20T15:22:28.830Z,16.84
2022-08-20T15:25:07.170Z,16.97
2022-08-20T15:27:42.397Z,16.88
2022-08-20T15:30:23.100Z,16.73
2022-08-20T15:32:59.687Z,16.20
2022-08-20T15:35:35.486Z,16.25
2022-08-20T15:38:11.295Z,16.01
2022-08-20T15:40:50.173Z,15.57
2022-08-20T15:43:26.677Z,16.20
2022-08-20T15:46:05.945Z,16.26
2022-08-20T15:48:51.200Z,16.18
2022-08-20T15:51:50.305Z,16.28
2022-08-20T15:54:31.415Z,16.29
2022-08-20T15:57:26.596Z,16.86
2022-08-20T16:00:17.125Z,17.37
2022-08-20T16:03:02.584Z,18.00
2022-08-20T16:05:40.454Z,18.43
2022-08-20T16:08:21.015Z,19.16
2022-08-20T16:10:59.166Z,19.74
2022-08-20T16:14:05.709Z,20.16
2022-08-20T16:16:59.111Z,20.68
2022-08-20T16:20:06.572Z,21.54
2022-08-20T16:22:47.874Z,22.31
2022-08-20T16:25:29.151Z,22.80
2022-08-20T16:28:14.112Z,23.22
2022-08-20T16:30:59.596Z,23.91
2022-08-20T16:33:45.567Z,24.36
2022-08-20T16:36:42.296Z,24.86
2022-08-20T16:39:30.492Z,25.54
2022-08-20T16:42:13.950Z,26.03
2022-08-20T16:44:52.635Z,26.35
2022-08-20T16:47:38.845Z,26.87
2022-08-20T16:50:47.357Z,27.69
2022-08-20T16:53:29.073Z,28.17
2022-08-20T16:56:10.269Z,28.54
2022-08-20T16:58:49.730Z,29.13
2022-08-20T17:01:29.292Z,29.45
2022-08-20T17:04:09.921Z,29.86
2022-08-20T17:06:52.068Z,30.59
2022-08-20T17:09:47.741Z,30.69
2022-08-20T17:12:32.416Z,31.46
2022-08-20T17:15:11.683Z,31.40
2022-08-20T17:17:46.370Z,31.84
2022-08-20T17:20:22.590Z,32.35
2022-08-20T17:23:10.415Z,32.44
2022-08-20T17:25:49.712Z,32.99
2022-08-20T17:28:31.928Z,33.16
2022-08-20T17:31:09.776Z,33.55
2022-08-20T17:33:51.135Z,34.45
2022-08-20T17:36:32.829Z,34.65
2022-08-20T17:39:20.400Z,34.84
2022-08-20T17:42:11.145Z,35.72
2022-08-20T17:45:13.142Z,36.46
2022-08-20T17:47:55.882Z,37.13
2022-08-20T17:50:42.334Z,38.27
2022-08-20T17:53:23.934Z,39.18
2022-08-20T17:56:05.480Z,40.80
2022-08-20T17:58:54.176Z,41.44
2022-08-20T18:01:33.527Z,42.25
2022-08-20T18:04:13.096Z,43.20
2022-08-20T18:07:12.609Z,43.89
2022-08-20T18:09:53.544Z,44.35
2022-08-20T18:12:42.685Z,45.14
2022-08-20T18:15:58.339Z,44.86
2022-08-20T18:18:57.241Z,45.47
2022-08-20T18:21:47.484Z,46.41
2022-08-20T18:24:31.966Z,46.55
2022-08-20T18:27:15.583Z,46.98
2022-08-20T18:29:57.392Z,47.67
2022-08-20T18:32:39.677Z,47.93
2022-08-20T18:35:21.091Z,47.85
2022-08-20T18:37:59.775Z,48.18
2022-08-20T18:40:40.317Z,48.73
2022-08-20T18:43:19.136Z,48.91
2022-08-20T18:45:57.407Z,49.23
2022-08-20T18:48:41.437Z,49.62
2022-08-20T18:51:25.532Z,49.87
2022-08-20T18:54:05.195Z,49.98
2022-08-20T18:56:44.821Z,50.18
2022-08-20T18:59:30.412Z,50.15
2022-08-20T19:02:30.847Z,50.61
2022-08-20T19:05:16.674Z,50.79
2022-08-20T19:07:56.990Z,50.84
2022-08-20T19:11:00.080Z,50.90
2022-08-20T19:13:51.700Z,51.48
2022-08-20T19:16:41.047Z,51.56
2022-08-20T19:19:23.525Z,52.10
2022-08-20T19:22:03.071Z,52.20
2022-08-20T19:24:47.618Z,52.78
2022-08-20T19:27:23.424Z,53.16
2022-08-20T19:29:57.963Z,52.79
2022-08-20T19:32:38.690Z,53.10
2022-08-20T19:35:20.278Z,52.92
2022-08-20T19:38:02.661Z,54.01
2022-08-20T19:40:46.051Z,53.12
2022-08-20T19:43:25.723Z,54.07
2022-08-20T19:46:00.280Z,54.18
2022-08-20T19:49:10.706Z,54.29
2022-08-20T19:52:04.477Z,54.78
2022-08-20T19:55:03.587Z,54.44
2022-08-20T19:57:39.133Z,54.32
2022-08-20T20:00:23.364Z,55.07
2022-08-20T20:03:02.849Z,54.85
2022-08-20T20:05:53.299Z,55.01
2022-08-20T20:08:43.392Z,55.77
2022-08-20T20:11:27.648Z,55.32
2022-08-20T20:14:12.261Z,56.21
2022-08-20T20:16:53.085Z,56.16
2022-08-20T20:19:33.519Z,56.01
2022-08-20T20:22:20.605Z,57.05
2022-08-20T20:25:10.590Z,57.09
2022-08-20T20:28:00.465Z,57.65
2022-08-20T20:30:37.853Z,57.72
2022-08-20T20:33:43.781Z,57.39
2022-08-20T20:36:33.424Z,58.11
2022-08-20T20:39:14.528Z,58.01
2022-08-20T20:41:55.358Z,58.83
2022-08-20T20:44:37.530Z,58.66
2022-08-20T20:47:30.720Z,58.37
2022-08-20T20:50:11.324Z,58.80
2022-08-20T20:52:56.984Z,59.17
2022-08-20T20:55:40.278Z,59.57
2022-08-20T20:58:20.060Z,58.94
2022-08-20T21:00:59.933Z,58.74
2022-08-20T21:03:37.529Z,58.51
2022-08-20T21:06:15.972Z,58.55
2022-08-20T21:08:53.572Z,58.58
2022-08-20T21:11:35.162Z,59.58
2022-08-20T21:14:14.659Z,59.62
2022-08-20T21:16:56.363Z,59.83
2022-08-20T21:19:33.863Z,60.47
2022-08-20T21:22:21.596Z,59.96
2022-08-20T21:24:57.085Z,60.73
2022-08-20T21:27:36.795Z,60.34
2022-08-20T21:30:17.427Z,60.88
2022-08-20T21:32:56.388Z,60.34
2022-08-20T21:35:35.519Z,60.37
2022-08-20T21:38:15.256Z,61.05
2022-08-20T21:40:52.765Z,61.01
2022-08-20T21:43:34.854Z,61.42
2022-08-20T21:46:14.013Z,62.18
2022-08-20T21:48:55.855Z,62.91
2022-08-20T21:51:31.263Z,62.35
2022-08-20T21:54:14.072Z,62.29
2022-08-20T21:57:01.406Z,62.68
2022-08-20T21:59:42.271Z,62.04
2022-08-20T22:02:19.774Z,62.29
2022-08-20T22:04:56.669Z,62.47
2022-08-20T22:07:34.141Z,62.67
2022-08-20T22:10:16.803Z,63.47
2022-08-20T22:12:54.383Z,64.49
2022-08-20T22:15:35.254Z,63.76
2022-08-20T22:18:15.736Z,63.39
2022-08-20T22:20:55.540Z,63.44
2022-08-20T22:23:38.974Z,63.23
2022-08-20T22:26:27.302Z,63.53
2022-08-20T22:29:03.547Z,63.19
2022-08-20T22:31:48.417Z,63.77
2022-08-20T22:34:28.715Z,63.29
2022-08-20T22:37:11.518Z,63.97
2022-08-20T22:39:53.005Z,64.91
2022-08-20T22:42:32.708Z,64.74
2022-08-20T22:45:15.170Z,65.35
2022-08-20T22:47:58.058Z,65.36
2022-08-20T22:50:34.686Z,65.06
2022-08-20T22:53:16.378Z,64.92
2022-08-20T22:55:53.401Z,64.76
2022-08-20T22:58:33.714Z,64.48
2022-08-20T23:01:11.323Z,64.41
2022-08-20T23:03:52.047Z,64.07
2022-08-20T23:06:35.643Z,64.41
2022-08-20T23:09:21.002Z,64.25
2022-08-20T23:11:58.013Z,63.94
2022-08-20T23:14:39.894Z,64.17
2022-08-20T23:17:20.351Z,64.42
2022-08-20T23:20:00.352Z,64.52
2022-08-20T23:22:39.742Z,65.05
2022-08-20T23:25:22.623Z,65.03
2022-08-20T23:28:04.037Z,64.52
2022-08-20T23:30:44.243Z,64.52
2022-08-20T23:33:20.719Z,65.13
2022-08-20T23:35:59.231Z,65.52
2022-08-20T23:38:38.077Z,66.10
2022-08-20T23:41:22.986Z,66.57
2022-08-20T23:44:01.216Z,66.73
2022-08-20T23:46:40.178Z,66.95
2022-08-20T23:49:17.598Z,67.35
2022-08-20T23:51:58.573Z,67.64
2022-08-20T23:54:36.000Z,67.60
2022-08-20T23:57:13.694Z,67.02
2022-08-20T23:59:53.014Z,66.82
